Time;durP1;ratioP1;P1;durP2;ratioP2;P2;SDS_P1;SDS_P2;PMS_P1;PMS_P2;Temp;Humidity;BMP_temperature;BMP_pressure;BME280_temperature;BME280_humidity;BME280_pressure;Samples;Min_cycle;Max_cycle;Signal;HPM_P1;HPM_P2
2022/12/23 00:01:43;;;;;;;0.50;0.47;;;;;;;10.12;100.00;99114.25;5026279;28;20773;-56
2022/12/23 00:04:10;;;;;;;2.00;0.70;;;;;;;10.12;100.00;99123.09;5024147;28;20450;-56
2022/12/23 00:06:36;;;;;;;0.30;0.30;;;;;;;10.04;100.00;99120.81;5019546;28;20505;-56
2022/12/23 00:09:03;;;;;;;1.17;0.87;;;;;;;9.94;100.00;99122.13;5021939;28;20479;-56
2022/12/23 00:11:29;;;;;;;1.63;0.53;;;;;;;10.07;100.00;99120.66;5025648;28;20468;-56
2022/12/23 00:16:48;;;;;;;0.93;0.70;;;;;;;10.12;100.00;99124.88;5027370;28;20505;-56
2022/12/23 00:19:15;;;;;;;1.20;1.10;;;;;;;10.04;100.00;99122.59;5019171;28;20447;-55
2022/12/23 00:21:42;;;;;;;0.40;0.30;;;;;;;9.97;100.00;99129.09;5031019;28;20463;-56
2022/12/23 00:24:08;;;;;;;0.40;0.40;;;;;;;9.88;100.00;99122.44;5018974;28;20506;-55
2022/12/23 00:26:34;;;;;;;1.33;0.37;;;;;;;9.82;100.00;99125.34;5024110;28;20452;-55
2022/12/23 00:29:01;;;;;;;0.60;0.40;;;;;;;9.88;100.00;99127.75;5026140;28;20816;-55
2022/12/23 00:31:27;;;;;;;0.60;0.43;;;;;;;9.99;100.00;99129.88;5013742;28;20448;-56
2022/12/23 00:33:54;;;;;;;0.60;0.40;;;;;;;9.98;100.00;99131.69;5025466;28;20493;-55
2022/12/23 00:36:29;;;;;;;1.07;0.67;;;;;;;10.05;100.00;99134.94;5021231;28;20463;-56
2022/12/23 00:44:27;;;;;;;0.40;0.30;;;;;;;10.19;100.00;99139.63;5021537;28;20509;-56
2022/12/23 00:46:53;;;;;;;0.40;0.30;;;;;;;10.10;100.00;99144.41;5027696;28;20459;-56
2022/12/23 00:52:08;;;;;;;0.40;0.30;;;;;;;10.02;100.00;99148.34;5019954;28;20464;-56
2022/12/23 00:54:35;;;;;;;0.30;0.20;;;;;;;10.06;100.00;99145.47;5024959;28;20967;-56
2022/12/23 00:57:02;;;;;;;0.40;0.30;;;;;;;10.06;100.00;99140.19;5018786;28;20427;-56
2022/12/23 00:59:28;;;;;;;0.30;0.20;;;;;;;10.06;100.00;99144.63;5019295;28;20473;-54
2022/12/23 01:07:24;;;;;;;0.40;0.30;;;;;;;10.04;100.00;99151.81;5023491;28;20447;-56
2022/12/23 01:09:51;;;;;;;0.50;0.40;;;;;;;10.07;100.00;99165.78;5020410;28;20964;-55
2022/12/23 01:12:18;;;;;;;0.40;0.40;;;;;;;10.07;100.00;99168.44;5017918;28;20427;-56
2022/12/23 01:14:45;;;;;;;0.40;0.30;;;;;;;10.07;100.00;99173.75;5034719;28;20835;-56
2022/12/23 01:17:11;;;;;;;0.30;0.20;;;;;;;10.06;100.00;99184.44;5037727;28;20431;-57
2022/12/23 01:19:38;;;;;;;0.50;0.30;;;;;;;10.06;100.00;99182.66;5018368;28;20475;-56
2022/12/23 01:22:04;;;;;;;0.67;0.30;;;;;;;10.11;100.00;99190.41;5030952;28;20543;-56
2022/12/23 01:24:31;;;;;;;0.30;0.20;;;;;;;10.14;100.00;99184.09;5018364;28;20444;-56
2022/12/23 01:26:58;;;;;;;0.30;0.30;;;;;;;10.41;100.00;99193.50;5019717;28;20453;-54
2022/12/23 01:29:25;;;;;;;0.50;0.30;;;;;;;10.22;100.00;99192.63;5025136;28;20491;-56
2022/12/23 01:31:51;;;;;;;0.40;0.30;;;;;;;10.09;100.00;99189.63;5012974;28;20456;-56
2022/12/23 01:34:18;;;;;;;0.47;0.30;;;;;;;10.09;100.00;99201.09;5024622;28;20459;-56
2022/12/23 01:36:45;;;;;;;0.33;0.30;;;;;;;10.01;100.00;99210.34;5023892;28;20448;-55
2022/12/23 01:39:11;;;;;;;0.50;0.37;;;;;;;10.02;100.00;99222.69;5018277;28;20446;-56
2022/12/23 01:45:01;;;;;;;0.40;0.30;;;;;;;10.41;100.00;99221.88;5020670;28;20466;-56
2022/12/23 01:47:40;;;;;;;0.80;0.50;;;;;;;10.40;100.00;99231.63;5031641;28;20439;-56
2022/12/23 01:50:21;;;;;;;0.87;0.80;;;;;;;10.20;100.00;99227.19;5018256;28;20502;-57
2022/12/23 01:53:00;;;;;;;1.13;0.90;;;;;;;10.01;100.00;99242.22;5024401;28;20947;-56
2022/12/23 01:55:44;;;;;;;1.33;1.23;;;;;;;10.15;100.00;99236.28;5022416;28;20422;-57
2022/12/23 01:58:14;;;;;;;3.13;0.90;;;;;;;10.30;100.00;99248.94;5021785;28;20938;-56
2022/12/23 02:03:41;;;;;;;5.23;2.77;;;;;;;10.29;100.00;99263.13;5021844;28;20477;-56
2022/12/23 02:09:18;;;;;;;1.37;1.27;;;;;;;10.12;100.00;99269.13;5028106;28;20467;-56
2022/12/23 02:12:03;;;;;;;3.23;2.20;;;;;;;9.99;100.00;99271.44;5026648;28;20484;-56
2022/12/23 02:17:56;;;;;;;4.83;1.77;;;;;;;9.88;100.00;99273.72;5031936;28;20536;-56
2022/12/23 02:20:41;;;;;;;5.47;3.13;;;;;;;9.90;100.00;99286.91;5025830;28;20478;-56
2022/12/23 02:23:19;;;;;;;2.70;2.20;;;;;;;10.00;100.00;99282.94;5022149;28;20448;-56
2022/12/23 02:26:04;;;;;;;2.40;2.20;;;;;;;9.72;100.00;99286.72;5021556;28;20860;-56
2022/12/23 02:28:39;;;;;;;3.00;1.93;;;;;;;9.66;100.00;99284.34;5023726;28;20469;-57
2022/12/23 02:31:29;;;;;;;2.23;2.07;;;;;;;9.61;100.00;99291.66;5027687;28;20547;-56
2022/12/23 02:34:01;;;;;;;2.20;2.10;;;;;;;9.59;100.00;99293.47;5009037;28;21089;-56
2022/12/23 02:36:41;;;;;;;1.50;1.40;;;;;;;9.57;100.00;99290.03;5024629;28;20419;-56
2022/12/23 02:39:10;;;;;;;2.60;2.40;;;;;;;9.49;100.00;99289.47;5020871;28;20491;-56
2022/12/23 02:41:47;;;;;;;3.30;3.10;;;;;;;9.45;100.00;99295.81;5021342;28;20500;-55
2022/12/23 02:44:30;;;;;;;3.50;3.20;;;;;;;9.35;100.00;99292.69;5022615;28;20540;-51
2022/12/23 02:47:09;;;;;;;3.20;2.57;;;;;;;9.19;100.00;99304.81;5029845;28;20444;-51
2022/12/23 02:49:39;;;;;;;1.83;1.73;;;;;;;9.16;100.00;99295.19;5022772;28;20490;-51
2022/12/23 02:52:12;;;;;;;1.87;1.77;;;;;;;9.08;100.00;99301.72;5027255;28;20435;-50
2022/12/23 02:54:47;;;;;;;1.90;1.70;;;;;;;9.06;100.00;99296.47;5027330;28;21004;-50
2022/12/23 02:57:20;;;;;;;2.50;2.40;;;;;;;8.90;100.00;99292.66;5026532;28;20448;-50
2022/12/23 02:59:50;;;;;;;1.93;1.83;;;;;;;8.97;100.00;99291.53;5027480;28;20475;-51
2022/12/23 03:02:17;;;;;;;1.33;1.13;;;;;;;8.93;100.00;99289.06;5023399;28;20845;-50
2022/12/23 03:04:44;;;;;;;2.47;1.87;;;;;;;8.84;100.00;99291.13;5025705;28;20786;-51
2022/12/23 03:07:18;;;;;;;11.33;1.40;;;;;;;8.89;100.00;99296.22;5025429;28;20954;-50
2022/12/23 03:09:58;;;;;;;1.37;1.27;;;;;;;8.77;100.00;99302.88;5027334;28;20498;-49
2022/12/23 03:12:27;;;;;;;17.17;1.93;;;;;;;8.73;100.00;99310.97;5026485;28;20426;-51
2022/12/23 03:15:16;;;;;;;1.90;1.80;;;;;;;8.45;100.00;99303.19;5030650;28;20490;-51
2022/12/23 03:18:01;;;;;;;1.40;1.30;;;;;;;8.44;100.00;99304.09;5031460;28;20448;-50
2022/12/23 03:20:50;;;;;;;1.50;1.40;;;;;;;8.29;100.00;99308.13;5025724;28;20456;-50
2022/12/23 03:23:31;;;;;;;0.90;0.90;;;;;;;8.39;100.00;99309.56;5022089;28;20456;-53
2022/12/23 03:26:22;;;;;;;2.50;1.63;;;;;;;8.31;100.00;99311.56;5017560;28;20490;-50
2022/12/23 03:28:56;;;;;;;1.70;1.60;;;;;;;8.43;100.00;99313.81;5026808;28;20510;-50
2022/12/23 03:31:26;;;;;;;1.13;1.03;;;;;;;8.36;100.00;99324.66;5022107;28;20506;-50
2022/12/23 03:34:19;;;;;;;1.00;1.00;;;;;;;8.32;100.00;99324.75;5030422;28;20473;-50
2022/12/23 03:36:52;;;;;;;0.80;0.60;;;;;;;8.21;100.00;99331.34;5026259;28;20451;-51
2022/12/23 03:39:22;;;;;;;3.67;1.47;;;;;;;7.96;100.00;99333.97;5020807;28;20471;-51
2022/12/23 03:41:59;;;;;;;2.47;1.80;;;;;;;8.02;100.00;99334.63;5020027;28;20452;-51
2022/12/23 03:44:31;;;;;;;1.50;1.40;;;;;;;8.09;100.00;99330.00;5024429;28;20447;-50
2022/12/23 03:47:10;;;;;;;10.83;0.93;;;;;;;7.83;100.00;99333.50;5026473;28;20579;-50
2022/12/23 03:49:44;;;;;;;2.50;1.13;;;;;;;7.70;100.00;99321.59;5025467;28;20459;-51
2022/12/23 03:52:19;;;;;;;0.83;0.60;;;;;;;7.69;100.00;99330.44;5019957;28;20534;-50
2022/12/23 03:54:56;;;;;;;0.70;0.50;;;;;;;7.78;100.00;99334.56;5019966;28;20480;-50
2022/12/23 03:57:33;;;;;;;2.80;1.67;;;;;;;7.78;100.00;99339.84;5023762;28;21004;-49
2022/12/23 04:00:00;;;;;;;1.30;1.00;;;;;;;7.92;100.00;99351.72;5026327;28;20970;-50
2022/12/23 04:02:34;;;;;;;0.97;0.63;;;;;;;7.50;100.00;99361.88;5023696;28;20845;-51
2022/12/23 04:05:32;;;;;;;0.70;0.70;;;;;;;7.40;100.00;99366.63;5019399;28;20443;-49
2022/12/23 04:08:14;;;;;;;1.07;1.07;;;;;;;7.17;100.00;99373.50;5019269;28;20463;-51
2022/12/23 04:10:41;;;;;;;1.23;0.50;;;;;;;7.29;100.00;99374.00;5021520;28;20827;-51
2022/12/23 04:13:08;;;;;;;0.83;0.83;;;;;;;7.00;100.00;99376.63;5026208;28;20451;-49
2022/12/23 04:15:40;;;;;;;1.10;1.00;;;;;;;6.97;100.00;99367.00;5029792;28;20487;-50
2022/12/23 04:18:07;;;;;;;0.70;0.60;;;;;;;6.66;100.00;99356.44;5026917;28;20468;-50
2022/12/23 04:20:35;;;;;;;0.40;0.40;;;;;;;6.78;100.00;99356.09;5025742;28;20463;-50
2022/12/23 04:23:01;;;;;;;0.60;0.50;;;;;;;6.81;100.00;99356.00;5025866;28;20761;-49
2022/12/23 04:25:28;;;;;;;0.57;0.40;;;;;;;6.88;100.00;99364.63;5014719;28;20456;-51
2022/12/23 04:27:54;;;;;;;2.63;0.80;;;;;;;6.77;100.00;99369.34;5025758;28;20463;-50
2022/12/23 04:30:21;;;;;;;14.30;0.60;;;;;;;6.73;100.00;99365.06;5025376;28;20479;-50
2022/12/23 04:32:47;;;;;;;1.87;0.50;;;;;;;6.73;100.00;99357.16;5019219;28;20456;-50
2022/12/23 04:35:13;;;;;;;0.90;0.30;;;;;;;6.83;100.00;99353.31;5019824;28;21021;-50
2022/12/23 04:37:40;;;;;;;0.40;0.30;;;;;;;6.76;100.00;99350.00;5025572;28;20479;-50
2022/12/23 04:40:07;;;;;;;0.53;0.53;;;;;;;6.57;100.00;99348.75;5025214;28;20566;-53
2022/12/23 04:42:34;;;;;;;0.63;0.63;;;;;;;6.51;100.00;99359.50;5019091;28;20827;-50
2022/12/23 04:45:01;;;;;;;0.40;0.30;;;;;;;6.33;100.00;99366.16;5019452;28;20452;-50
2022/12/23 04:47:27;;;;;;;1.27;1.17;;;;;;;6.27;100.00;99368.06;5021984;28;20484;-50
2022/12/23 04:49:53;;;;;;;0.40;0.30;;;;;;;6.18;100.00;99358.63;5025854;28;20467;-50
2022/12/23 04:52:20;;;;;;;0.40;0.20;;;;;;;6.03;100.00;99356.38;5012960;28;20464;-50
2022/12/23 04:54:46;;;;;;;0.50;0.30;;;;;;;6.05;100.00;99367.78;5025449;28;21016;-50
2022/12/23 04:57:14;;;;;;;0.43;0.33;;;;;;;6.13;100.00;99374.56;5022695;28;20460;-49
2022/12/23 04:59:40;;;;;;;0.40;0.33;;;;;;;5.96;100.00;99374.13;5026053;28;20490;-52
2022/12/23 05:02:07;;;;;;;1.03;1.03;;;;;;;5.96;100.00;99382.03;5024859;28;21008;-51
2022/12/23 05:04:34;;;;;;;0.50;0.30;;;;;;;5.87;100.00;99379.59;5025648;28;20447;-51
2022/12/23 05:07:00;;;;;;;0.40;0.20;;;;;;;6.05;100.00;99387.09;5021480;28;21010;-51
2022/12/23 05:09:26;;;;;;;0.30;0.20;;;;;;;5.95;100.00;99385.59;5029212;28;20468;-51
2022/12/23 05:11:53;;;;;;;0.30;0.20;;;;;;;5.98;100.00;99382.88;5021172;28;20461;-50
2022/12/23 05:14:19;;;;;;;0.40;0.40;;;;;;;6.15;100.00;99375.38;5026282;28;20741;-49
2022/12/23 05:16:46;;;;;;;0.30;0.20;;;;;;;6.13;100.00;99382.47;5031564;28;20912;-50
2022/12/23 05:19:13;;;;;;;0.33;0.20;;;;;;;6.08;100.00;99383.50;5018591;28;20847;-50
2022/12/23 05:21:39;;;;;;;0.40;0.20;;;;;;;6.11;100.00;99380.78;5030368;28;20899;-50
2022/12/23 05:24:05;;;;;;;0.83;0.50;;;;;;;6.06;100.00;99386.19;5018614;28;20490;-49
2022/12/23 05:26:32;;;;;;;0.30;0.20;;;;;;;6.19;100.00;99390.25;5025875;28;20456;-52
2022/12/23 05:28:58;;;;;;;0.50;0.40;;;;;;;6.04;100.00;99390.66;5022952;28;20598;-49
2022/12/23 05:31:25;;;;;;;0.30;0.20;;;;;;;5.98;100.00;99388.13;5033242;28;20462;-49
2022/12/23 05:33:51;;;;;;;0.50;0.50;;;;;;;5.95;100.00;99385.59;5033221;28;20447;-50
2022/12/23 05:36:18;;;;;;;0.30;0.20;;;;;;;5.96;100.00;99384.69;5022353;28;21053;-48
2022/12/23 05:38:44;;;;;;;0.30;0.20;;;;;;;5.97;100.00;99375.84;5028739;28;20565;-49
2022/12/23 05:41:11;;;;;;;0.30;0.20;;;;;;;6.15;100.00;99379.81;5024779;28;20482;-49
2022/12/23 05:43:37;;;;;;;0.40;0.23;;;;;;;6.17;100.00;99380.66;5022557;28;20448;-50
2022/12/23 05:46:04;;;;;;;0.40;0.40;;;;;;;6.22;100.00;99384.91;5031319;28;20457;-49
2022/12/23 05:48:30;;;;;;;0.70;0.70;;;;;;;6.03;100.00;99390.66;5034927;28;20490;-49
2022/12/23 05:50:57;;;;;;;0.30;0.20;;;;;;;6.19;100.00;99398.19;5026433;28;20454;-50
2022/12/23 05:53:23;;;;;;;0.40;0.30;;;;;;;6.08;100.00;99404.63;5028553;28;20462;-50
2022/12/23 05:55:49;;;;;;;0.30;0.20;;;;;;;6.11;100.00;99402.75;5025144;28;20494;-49
2022/12/23 05:58:16;;;;;;;0.30;0.20;;;;;;;5.93;100.00;99405.84;5021857;28;20455;-49
2022/12/23 06:00:43;;;;;;;0.30;0.20;;;;;;;5.72;100.00;99404.56;5025661;28;20535;-48
2022/12/23 06:03:10;;;;;;;0.30;0.20;;;;;;;5.72;100.00;99396.63;5029942;28;20513;-49
2022/12/23 06:05:39;;;;;;;0.40;0.30;;;;;;;5.83;100.00;99394.63;5025084;28;20447;-49
2022/12/23 06:08:05;;;;;;;0.30;0.20;;;;;;;5.96;100.00;99397.88;5023027;28;20456;-50
2022/12/23 06:10:31;;;;;;;0.40;0.30;;;;;;;6.07;100.00;99397.63;5025779;28;20443;-51
2022/12/23 06:12:58;;;;;;;0.30;0.20;;;;;;;6.21;100.00;99398.13;5021983;28;20452;-49
2022/12/23 06:15:24;;;;;;;1.50;0.20;;;;;;;6.37;100.00;99403.88;5033305;28;20486;-49
2022/12/23 06:17:51;;;;;;;1.23;1.13;;;;;;;6.45;100.00;99409.84;5030764;28;20511;-48
2022/12/23 06:20:17;;;;;;;1.07;1.00;;;;;;;6.61;100.00;99405.00;5032821;28;20557;-49
2022/12/23 06:22:46;;;;;;;0.43;0.30;;;;;;;6.54;100.00;99417.50;5028884;28;20512;-50
2022/12/23 06:25:13;;;;;;;3.63;0.30;;;;;;;6.52;100.00;99419.31;5022785;28;20482;-53
2022/12/23 06:27:39;;;;;;;0.90;0.90;;;;;;;6.57;100.00;99421.81;5030628;28;20462;-53
2022/12/23 06:30:06;;;;;;;17.60;1.20;;;;;;;6.61;100.00;99427.00;5023060;28;20476;-50
2022/12/23 06:32:33;;;;;;;2.10;2.00;;;;;;;6.66;100.00;99429.50;5030011;28;20618;-50
2022/12/23 06:35:05;;;;;;;1.70;1.60;;;;;;;6.63;100.00;99429.59;5022846;28;20590;-49
2022/12/23 06:37:31;;;;;;;2.90;2.70;;;;;;;6.60;100.00;99433.19;5030999;28;20623;-49
2022/12/23 06:39:58;;;;;;;1.70;1.23;;;;;;;6.52;100.00;99430.75;5034289;28;20480;-49
2022/12/23 06:42:24;;;;;;;1.97;1.80;;;;;;;6.57;100.00;99430.59;5030295;28;20452;-48
2022/12/23 06:44:51;;;;;;;1.50;1.17;;;;;;;6.66;100.00;99425.09;5021912;28;20456;-49
2022/12/23 06:47:17;;;;;;;2.60;2.10;;;;;;;6.69;100.00;99410.94;5027592;28;20521;-50
2022/12/23 06:49:44;;;;;;;1.47;1.40;;;;;;;6.76;100.00;99413.38;5027031;28;20479;-50
2022/12/23 06:52:10;;;;;;;4.50;2.13;;;;;;;6.83;100.00;99414.94;5020957;28;20534;-49
2022/12/23 06:54:36;;;;;;;1.03;0.93;;;;;;;6.87;100.00;99412.22;5021629;28;20459;-49
2022/12/23 06:57:03;;;;;;;6.33;2.67;;;;;;;6.87;100.00;99417.50;5027737;28;20462;-49
2022/12/23 06:59:30;;;;;;;1.27;1.10;;;;;;;6.92;100.00;99410.31;5027121;28;20490;-48
2022/12/23 07:01:56;;;;;;;9.90;1.50;;;;;;;6.95;100.00;99404.94;5024684;28;20578;-49
2022/12/23 07:04:23;;;;;;;7.60;2.53;;;;;;;6.95;100.00;99400.53;5020948;28;20506;-49
2022/12/23 07:06:50;;;;;;;2.50;1.53;;;;;;;7.04;100.00;99409.97;5027582;28;20449;-49
2022/12/23 07:09:16;;;;;;;0.83;0.83;;;;;;;7.06;100.00;99403.72;5027259;28;20467;-49
2022/12/23 07:11:43;;;;;;;1.20;1.13;;;;;;;7.07;100.00;99399.31;5019927;28;20455;-49
2022/12/23 07:14:09;;;;;;;1.60;1.37;;;;;;;7.15;100.00;99401.75;5030117;28;20451;-49
2022/12/23 07:16:36;;;;;;;0.50;0.43;;;;;;;7.21;100.00;99398.91;5023374;28;20495;-49
2022/12/23 07:19:02;;;;;;;4.33;2.00;;;;;;;7.21;100.00;99404.19;5031949;28;20479;-49
2022/12/23 07:21:29;;;;;;;0.90;0.80;;;;;;;7.26;100.00;99410.19;5014699;28;20456;-49
2022/12/23 07:23:55;;;;;;;1.60;1.50;;;;;;;7.25;100.00;99414.63;5026101;28;20458;-48
2022/12/23 07:26:22;;;;;;;0.53;0.53;;;;;;;7.30;100.00;99412.72;5018291;28;20527;-52
2022/12/23 07:28:48;;;;;;;12.13;2.67;;;;;;;7.34;100.00;99429.34;5020002;28;21027;-51
2022/12/23 07:31:15;;;;;;;1.27;1.17;;;;;;;7.31;100.00;99434.75;5022450;28;21020;-52
2022/12/23 07:33:42;;;;;;;0.70;0.63;;;;;;;7.37;100.00;99429.25;5020539;28;20539;-51
2022/12/23 07:36:08;;;;;;;2.00;1.90;;;;;;;7.31;100.00;99442.66;5023060;28;20596;-50
2022/12/23 07:38:35;;;;;;;3.60;1.13;;;;;;;7.33;100.00;99449.66;5030587;28;20494;-53
2022/12/23 07:41:02;;;;;;;2.17;1.80;;;;;;;7.47;100.00;99446.59;5025789;28;20457;-50
2022/12/23 07:43:28;;;;;;;6.93;2.30;;;;;;;7.49;100.00;99441.25;5023514;28;20945;-53
2022/12/23 07:45:55;;;;;;;5.93;1.53;;;;;;;7.54;100.00;99455.19;5021000;28;21016;-50
2022/12/23 07:48:26;;;;;;;2.40;2.20;;;;;;;7.57;100.00;99460.41;5020969;28;20554;-51
2022/12/23 07:50:59;;;;;;;2.77;2.30;;;;;;;7.66;100.00;99458.34;5020864;28;20532;-51
2022/12/23 07:53:25;;;;;;;1.40;1.30;;;;;;;7.88;100.00;99466.50;5022540;28;20491;-51
2022/12/23 07:55:52;;;;;;;1.97;1.87;;;;;;;7.91;100.00;99458.47;5022613;28;20491;-51
2022/12/23 07:58:22;;;;;;;2.57;2.10;;;;;;;7.84;100.00;99451.66;5019355;28;20533;-51
2022/12/23 08:00:48;;;;;;;3.00;2.53;;;;;;;7.86;100.00;99441.88;5022879;28;20463;-53
2022/12/23 08:03:15;;;;;;;1.77;1.63;;;;;;;7.87;100.00;99445.38;5025553;28;21270;-51
2022/12/23 08:05:42;;;;;;;1.40;1.30;;;;;;;7.77;100.00;99431.56;5022282;28;20448;-51
2022/12/23 08:08:08;;;;;;;2.70;1.80;;;;;;;7.73;100.00;99424.66;5026563;28;20448;-50
2022/12/23 08:10:34;;;;;;;1.80;1.70;;;;;;;7.78;100.00;99412.13;5023154;28;20451;-53
2022/12/23 08:13:01;;;;;;;6.40;2.67;;;;;;;7.78;100.00;99403.34;5029576;28;20452;-51
2022/12/23 08:15:27;;;;;;;2.87;2.67;;;;;;;7.79;100.00;99413.00;5032389;28;20558;-54
2022/12/23 08:17:55;;;;;;;2.00;1.90;;;;;;;7.71;100.00;99410.63;5029753;28;20458;-52
2022/12/23 08:20:21;;;;;;;2.20;2.00;;;;;;;7.83;100.00;99420.81;5032567;28;20447;-51
2022/12/23 08:22:47;;;;;;;3.20;3.00;;;;;;;7.99;100.00;99429.13;5013605;28;20480;-55
2022/12/23 08:25:14;;;;;;;5.10;3.50;;;;;;;8.00;100.00;99429.06;5028635;28;20493;-52
2022/12/23 08:27:40;;;;;;;3.27;2.97;;;;;;;8.09;100.00;99449.09;5018747;28;20462;-52
2022/12/23 08:30:08;;;;;;;2.77;2.67;;;;;;;8.03;100.00;99454.56;5027456;28;20468;-52
2022/12/23 08:32:34;;;;;;;6.53;3.60;;;;;;;7.93;100.00;99445.19;5020421;28;20464;-50
2022/12/23 08:35:00;;;;;;;2.70;2.50;;;;;;;7.98;100.00;99451.22;5014923;28;20461;-52
2022/12/23 08:37:27;;;;;;;3.83;3.47;;;;;;;7.95;100.00;99446.03;5029542;28;20934;-53
2022/12/23 08:39:53;;;;;;;3.50;3.20;;;;;;;7.94;100.00;99446.91;5020276;28;20487;-49
2022/12/23 08:42:20;;;;;;;3.83;3.30;;;;;;;7.89;100.00;99452.34;5023439;28;20432;-51
2022/12/23 08:44:46;;;;;;;3.97;2.83;;;;;;;7.92;100.00;99452.25;5018545;28;20477;-51
2022/12/23 08:47:13;;;;;;;3.07;2.87;;;;;;;8.08;100.00;99465.00;5025755;28;20449;-51
2022/12/23 08:49:39;;;;;;;5.03;4.50;;;;;;;8.15;100.00;99462.13;5024578;28;20479;-55
2022/12/23 08:52:06;;;;;;;6.83;4.23;;;;;;;8.22;100.00;99454.84;5026647;28;20451;-50
2022/12/23 08:54:32;;;;;;;4.70;3.43;;;;;;;8.20;100.00;99446.06;5024188;28;20455;-50
2022/12/23 08:56:59;;;;;;;5.20;4.80;;;;;;;8.24;100.00;99439.78;5018977;28;20454;-51
2022/12/23 08:59:25;;;;;;;5.73;4.57;;;;;;;8.31;100.00;99442.16;5025560;28;20472;-51
2022/12/23 09:01:51;;;;;;;3.97;3.63;;;;;;;8.39;100.00;99443.75;5020015;28;20456;-52
2022/12/23 09:04:18;;;;;;;32.17;9.03;;;;;;;8.43;100.00;99440.06;5030709;28;20459;-51
2022/12/23 09:06:44;;;;;;;13.20;9.50;;;;;;;8.45;100.00;99449.69;5024050;28;20449;-51
2022/12/23 09:09:14;;;;;;;7.07;4.20;;;;;;;8.43;100.00;99445.38;5031272;28;20486;-51
2022/12/23 09:11:41;;;;;;;3.30;2.93;;;;;;;8.40;100.00;99446.34;5019901;28;20948;-51
2022/12/23 09:14:08;;;;;;;3.00;2.80;;;;;;;8.42;100.00;99447.16;5025278;28;20832;-51
2022/12/23 09:16:36;;;;;;;3.80;2.40;;;;;;;8.43;100.00;99445.38;5044958;28;20541;-51
2022/12/23 09:19:03;;;;;;;2.40;2.30;;;;;;;8.46;100.00;99454.06;5021212;28;20504;-51
2022/12/23 09:21:29;;;;;;;3.20;3.07;;;;;;;8.47;100.00;99453.16;5014177;28;20453;-51
2022/12/23 09:23:56;;;;;;;3.20;2.63;;;;;;;8.49;100.00;99450.44;5016105;28;20833;-53
2022/12/23 09:26:27;;;;;;;1.40;1.30;;;;;;;8.47;100.00;99446.97;5025214;28;20449;-51
2022/12/23 09:28:54;;;;;;;1.17;1.17;;;;;;;8.44;100.00;99452.38;5025938;28;20438;-51
2022/12/23 09:31:22;;;;;;;2.33;2.13;;;;;;;8.51;100.00;99452.16;5020071;28;20448;-49
2022/12/23 09:33:51;;;;;;;2.40;2.30;;;;;;;8.55;100.00;99448.47;5029125;28;20952;-51
2022/12/23 09:36:18;;;;;;;2.87;2.67;;;;;;;8.58;100.00;99451.00;5019893;28;20928;-51
2022/12/23 09:38:45;;;;;;;2.30;2.03;;;;;;;8.64;100.00;99452.59;5030319;28;20479;-51
2022/12/23 09:41:11;;;;;;;1.13;1.03;;;;;;;8.66;100.00;99448.09;5020432;28;20538;-50
2022/12/23 09:43:50;;;;;;;2.00;1.90;;;;;;;8.53;100.00;99436.19;5017707;28;20468;-53
2022/12/23 09:46:22;;;;;;;4.40;2.40;;;;;;;8.70;100.00;99444.44;5027956;28;20945;-51
2022/12/23 09:49:08;;;;;;;2.40;2.20;;;;;;;8.64;100.00;99428.75;5018172;28;20472;-51
2022/12/23 09:51:34;;;;;;;2.10;2.00;;;;;;;8.70;100.00;99425.88;5031210;28;20505;-51
2022/12/23 09:54:16;;;;;;;4.33;2.60;;;;;;;8.79;100.00;99432.66;5023216;28;20905;-51
2022/12/23 09:56:51;;;;;;;4.73;4.23;;;;;;;8.89;100.00;99444.63;5018030;28;20495;-50
2022/12/23 09:59:52;;;;;;;3.07;2.07;;;;;;;8.94;100.00;99433.91;5021561;28;20471;-51
2022/12/23 10:02:28;;;;;;;8.70;2.87;;;;;;;8.87;100.00;99431.44;5020321;28;20452;-50
2022/12/23 10:05:13;;;;;;;5.33;2.77;;;;;;;8.98;100.00;99433.72;5019878;28;20452;-50
2022/12/23 10:07:50;;;;;;;1.97;1.47;;;;;;;9.01;100.00;99438.91;5024577;28;20646;-50
2022/12/23 10:10:33;;;;;;;2.60;2.50;;;;;;;9.04;100.00;99440.56;5012082;28;20477;-51
2022/12/23 10:13:04;;;;;;;1.73;1.63;;;;;;;9.04;100.00;99433.47;5022597;28;20813;-51
2022/12/23 10:15:42;;;;;;;1.53;1.20;;;;;;;8.98;100.00;99430.22;5032378;28;20784;-51
2022/12/23 10:18:22;;;;;;;2.37;2.23;;;;;;;9.12;100.00;99428.78;5028191;28;20464;-51
2022/12/23 10:21:03;;;;;;;18.20;2.43;;;;;;;9.17;100.00;99423.31;5028339;28;20451;-52
2022/12/23 10:23:37;;;;;;;2.83;2.73;;;;;;;9.18;100.00;99414.41;5015249;28;20536;-53
2022/12/23 10:26:28;;;;;;;1.57;1.47;;;;;;;9.40;100.00;99402.09;5025893;28;20458;-52
2022/12/23 10:29:15;;;;;;;3.53;1.37;;;;;;;9.60;100.00;99397.84;5021313;28;20452;-52
2022/12/23 10:32:06;;;;;;;2.40;0.80;;;;;;;9.79;100.00;99385.56;5006870;28;20449;-51
2022/12/23 10:34:51;;;;;;;1.17;0.77;;;;;;;9.99;100.00;99372.31;5022324;28;20875;-52
2022/12/23 10:37:31;;;;;;;0.50;0.40;;;;;;;9.97;100.00;99360.91;5024952;28;20854;-51
2022/12/23 10:40:15;;;;;;;0.40;0.30;;;;;;;10.10;100.00;99356.81;5034730;28;20450;-51
2022/12/23 10:42:57;;;;;;;0.97;0.97;;;;;;;10.12;100.00;99356.75;5022883;28;20482;-53
2022/12/23 10:45:51;;;;;;;3.13;1.70;;;;;;;10.13;100.00;99341.69;5021484;28;20470;-51
2022/12/23 10:48:45;;;;;;;0.40;0.40;;;;;;;10.14;100.00;99328.34;5021380;28;20448;-51
2022/12/23 10:51:18;;;;;;;3.40;2.07;;;;;;;10.13;100.00;99323.09;5030335;28;20455;-51
2022/12/23 10:53:55;;;;;;;3.80;2.40;;;;;;;10.07;100.00;99317.13;5021118;28;20480;-51
2022/12/23 10:56:21;;;;;;;3.93;2.93;;;;;;;9.98;100.00;99325.47;5028061;28;20486;-53
2022/12/23 10:58:56;;;;;;;2.70;2.50;;;;;;;10.01;100.00;99330.69;5021335;28;20483;-51
2022/12/23 11:01:23;;;;;;;6.10;4.67;;;;;;;9.96;100.00;99316.72;5021196;28;20892;-51
2022/12/23 11:04:02;;;;;;;12.13;7.20;;;;;;;9.95;100.00;99306.16;5025985;28;20983;-53
2022/12/23 11:06:31;;;;;;;4.37;4.07;;;;;;;9.83;100.00;99298.69;5029385;28;20448;-53
2022/12/23 11:09:04;;;;;;;10.33;7.50;;;;;;;9.86;100.00;99283.50;5025778;28;20553;-51
2022/12/23 11:12:02;;;;;;;5.90;5.47;;;;;;;9.93;100.00;99292.09;5023701;28;20455;-51
2022/12/23 11:14:32;;;;;;;6.27;5.87;;;;;;;9.96;100.00;99281.34;5032824;28;20447;-51
2022/12/23 11:16:58;;;;;;;7.43;6.27;;;;;;;9.95;100.00;99284.94;5044054;28;20494;-52
2022/12/23 11:19:25;;;;;;;13.03;6.50;;;;;;;10.00;100.00;99281.13;5020645;28;20464;-51
2022/12/23 11:21:54;;;;;;;16.63;5.30;;;;;;;10.01;100.00;99287.34;5032690;28;20458;-52
2022/12/23 11:24:22;;;;;;;4.20;3.87;;;;;;;10.01;100.00;99277.56;5002903;28;20441;-53
2022/12/23 11:26:58;;;;;;;3.73;3.43;;;;;;;10.22;100.00;99266.97;5023400;28;21208;-52
2022/12/23 11:29:37;;;;;;;6.80;4.87;;;;;;;10.23;100.00;99263.38;5027170;28;20474;-51
2022/12/23 11:32:26;;;;;;;3.03;2.73;;;;;;;10.08;100.00;99259.56;5029222;28;20479;-52
2022/12/23 11:34:54;;;;;;;3.80;2.80;;;;;;;10.13;100.00;99257.56;5023818;28;20451;-54
2022/12/23 11:37:35;;;;;;;4.00;3.67;;;;;;;10.08;100.00;99247.16;5022784;28;20494;-52
2022/12/23 11:40:14;;;;;;;3.87;3.43;;;;;;;10.08;100.00;99248.97;5031302;28;20483;-52
2022/12/23 11:42:41;;;;;;;2.93;2.73;;;;;;;10.02;100.00;99238.63;5021853;28;20449;-52
2022/12/23 11:45:08;;;;;;;5.33;4.10;;;;;;;10.07;100.00;99234.81;5028206;28;20458;-52
2022/12/23 11:47:39;;;;;;;5.87;5.30;;;;;;;10.08;100.00;99231.25;5021877;28;20422;-52
2022/12/23 11:50:56;;;;;;;3.07;2.90;;;;;;;10.05;100.00;99227.84;5019841;28;20451;-52
2022/12/23 11:53:24;;;;;;;3.90;3.60;;;;;;;10.13;100.00;99215.09;4952961;29;20558;-52
2022/12/23 11:56:13;;;;;;;10.27;5.87;;;;;;;10.06;100.00;99211.00;4943994;29;20874;-51
2022/12/23 11:59:01;;;;;;;4.10;3.80;;;;;;;10.11;100.00;99211.66;4997301;28;20471;-51
2022/12/23 12:01:28;;;;;;;11.03;4.63;;;;;;;10.14;100.00;99208.00;5019904;28;20458;-53
2022/12/23 12:04:01;;;;;;;8.53;4.63;;;;;;;10.16;100.00;99203.50;5024276;28;20427;-52
2022/12/23 12:06:29;;;;;;;3.03;2.83;;;;;;;10.23;100.00;99199.66;5019884;28;20478;-52
2022/12/23 12:08:59;;;;;;;5.07;3.70;;;;;;;10.22;100.00;99196.13;5025879;28;20935;-55
2022/12/23 12:11:34;;;;;;;2.60;2.50;;;;;;;10.27;100.00;99187.94;5026926;28;20456;-53
2022/12/23 12:14:03;;;;;;;3.90;3.57;;;;;;;10.29;100.00;99180.81;5025561;28;20816;-52
2022/12/23 12:16:30;;;;;;;4.60;4.30;;;;;;;10.31;100.00;99170.97;5045201;28;20533;-52
2022/12/23 12:19:04;;;;;;;6.40;4.37;;;;;;;10.33;100.00;99158.47;5025070;28;20479;-53